Time;durP1;ratioP1;P1;durP2;ratioP2;P2;SDS_P1;SDS_P2;PMS_P1;PMS_P2;Temp;Humidity;BMP_temperature;BMP_pressure;BME280_temperature;BME280_humidity;BME280_pressure;Samples;Min_cycle;Max_cycle;Signal;HPM_P1;HPM_P2
2022/07/22 00:02:07;;;;;;;9.75;2.08;;;;;;;15.32;100.00;99027.97;5099522;28;20039;-95
2022/07/22 00:04:32;;;;;;;6.45;1.45;;;;;;;15.36;100.00;99028.72;5098955;28;20651;-95
2022/07/22 00:06:58;;;;;;;6.80;1.70;;;;;;;15.25;100.00;99026.34;5086159;28;20100;-95
2022/07/22 00:09:24;;;;;;;7.43;1.75;;;;;;;15.30;100.00;99023.63;5086373;28;20027;-94
2022/07/22 00:11:49;;;;;;;5.93;1.50;;;;;;;15.27;100.00;99018.47;5085279;28;20471;-94
2022/07/22 00:14:15;;;;;;;5.95;1.55;;;;;;;15.12;100.00;99017.06;5087470;28;20027;-94
2022/07/22 00:16:41;;;;;;;11.45;1.95;;;;;;;15.08;100.00;99020.66;5082696;28;20452;-96
2022/07/22 00:19:07;;;;;;;6.18;1.60;;;;;;;15.05;100.00;99025.97;5088634;28;20032;-94
2022/07/22 00:21:34;;;;;;;6.68;1.50;;;;;;;14.93;100.00;99014.81;5084820;28;20498;-94
2022/07/22 00:23:59;;;;;;;6.00;1.75;;;;;;;14.92;100.00;99026.25;5083842;28;20036;-94
2022/07/22 00:26:25;;;;;;;10.35;1.83;;;;;;;14.99;100.00;99016.47;5088587;28;20019;-94
2022/07/22 00:28:51;;;;;;;5.68;1.50;;;;;;;14.87;100.00;99022.84;5109267;27;20026;-95
2022/07/22 00:31:16;;;;;;;6.45;1.80;;;;;;;14.80;100.00;99022.13;5081628;28;20059;-95
2022/07/22 00:33:42;;;;;;;6.65;1.75;;;;;;;14.76;100.00;99027.47;5095297;28;20404;-95
2022/07/22 00:36:08;;;;;;;8.90;1.83;;;;;;;14.61;100.00;99028.63;5091975;28;20059;-94
2022/07/22 00:38:33;;;;;;;9.27;2.03;;;;;;;14.65;100.00;99036.44;5081707;28;20028;-96
2022/07/22 00:40:59;;;;;;;6.40;1.65;;;;;;;15.31;100.00;99023.59;5079247;28;20028;-95
2022/07/22 00:43:28;;;;;;;6.07;1.70;;;;;;;15.35;100.00;99025.25;5082134;28;20032;-96
2022/07/22 00:46:00;;;;;;;7.00;1.70;;;;;;;15.46;100.00;99022.38;5088044;28;20024;-95
2022/07/22 00:48:26;;;;;;;7.55;1.65;;;;;;;15.32;100.00;99019.19;5089792;28;20484;-95
2022/07/22 00:50:52;;;;;;;6.65;1.60;;;;;;;15.14;100.00;99012.59;5085419;28;20039;-93
2022/07/22 00:53:17;;;;;;;9.15;2.00;;;;;;;15.24;100.00;99013.25;5112982;27;20095;-91
2022/07/22 00:55:43;;;;;;;7.60;1.85;;;;;;;15.10;100.00;99017.09;5082589;28;20046;-94
2022/07/22 00:58:09;;;;;;;6.72;1.40;;;;;;;15.24;100.00;99013.25;5087865;28;20032;-93
2022/07/22 01:00:34;;;;;;;8.40;1.88;;;;;;;15.19;100.00;99011.59;5081437;28;20082;-95
2022/07/22 01:03:00;;;;;;;6.40;1.73;;;;;;;14.45;100.00;99025.47;5087103;28;20028;-93
2022/07/22 01:05:25;;;;;;;6.82;1.98;;;;;;;14.75;100.00;99017.88;5090512;28;20036;-93
2022/07/22 01:07:51;;;;;;;7.43;1.83;;;;;;;15.13;100.00;99003.88;5092606;28;20566;-94
2022/07/22 01:10:17;;;;;;;6.72;1.50;;;;;;;15.00;100.00;99005.94;5118835;27;20123;-94
2022/07/22 01:12:42;;;;;;;8.07;1.80;;;;;;;15.35;100.00;98998.97;5086281;28;20028;-94
2022/07/22 01:15:08;;;;;;;9.85;1.92;;;;;;;15.16;100.00;99000.31;5081457;28;20037;-95
2022/07/22 01:17:34;;;;;;;7.85;1.83;;;;;;;15.48;100.00;99002.16;5080898;28;20024;-93
2022/07/22 01:20:05;;;;;;;11.75;2.78;;;;;;;15.40;100.00;98995.38;5086454;28;20479;-94
2022/07/22 01:22:31;;;;;;;7.25;2.00;;;;;;;14.68;100.00;98989.16;5084345;28;20032;-95
2022/07/22 01:24:56;;;;;;;9.23;2.17;;;;;;;14.63;100.00;98998.88;5088931;28;20338;-94
2022/07/22 01:27:22;;;;;;;7.43;1.90;;;;;;;14.57;100.00;98998.09;5084815;28;20438;-95
2022/07/22 01:29:47;;;;;;;8.60;1.88;;;;;;;14.64;100.00;98997.97;5082793;28;20437;-93
2022/07/22 01:32:13;;;;;;;6.28;1.80;;;;;;;14.61;100.00;98999.75;5085992;28;20020;-93
2022/07/22 01:34:38;;;;;;;7.80;2.00;;;;;;;14.57;100.00;98998.09;5087099;28;20028;-93
2022/07/22 01:37:04;;;;;;;11.93;1.95;;;;;;;14.52;100.00;98993.81;5084366;28;20036;-94
2022/07/22 01:39:29;;;;;;;8.23;1.77;;;;;;;14.58;100.00;99003.31;5086095;28;20033;-94
2022/07/22 01:41:55;;;;;;;6.85;1.65;;;;;;;14.56;100.00;98999.88;5086313;28;20028;-94
2022/07/22 01:44:20;;;;;;;6.93;2.10;;;;;;;14.51;100.00;98993.84;5085368;28;20016;-93
2022/07/22 01:46:46;;;;;;;5.90;1.80;;;;;;;14.56;100.00;99004.25;5115204;27;20028;-94
2022/07/22 01:49:14;;;;;;;6.32;1.65;;;;;;;14.62;100.00;98998.88;5084695;28;20056;-94
2022/07/22 01:51:40;;;;;;;8.23;2.20;;;;;;;14.58;100.00;98999.84;5085586;28;20036;-95
2022/07/22 01:54:05;;;;;;;8.15;1.88;;;;;;;14.62;100.00;98989.25;5090233;28;20077;-94
2022/07/22 01:56:31;;;;;;;7.68;1.88;;;;;;;14.62;100.00;98991.00;5081496;28;20032;-94
2022/07/22 01:58:56;;;;;;;8.73;1.83;;;;;;;14.54;100.00;98998.16;5091399;28;20044;-94
2022/07/22 02:01:22;;;;;;;6.25;1.65;;;;;;;14.51;100.00;98999.09;5085098;28;20020;-93
2022/07/22 02:03:47;;;;;;;8.60;1.88;;;;;;;14.57;100.00;99001.59;5083945;28;20108;-95
2022/07/22 02:06:13;;;;;;;6.10;1.70;;;;;;;14.49;100.00;98998.28;5117461;27;20379;-93
2022/07/22 02:08:38;;;;;;;8.20;1.92;;;;;;;14.53;100.00;98992.06;5085127;28;20036;-94
2022/07/22 02:11:04;;;;;;;7.05;1.65;;;;;;;14.51;100.00;98997.31;5082382;28;20028;-93
2022/07/22 02:13:30;;;;;;;7.00;1.70;;;;;;;14.56;100.00;99002.50;5088471;28;20451;-94
2022/07/22 02:15:56;;;;;;;5.85;1.80;;;;;;;14.46;100.00;99004.44;5082907;28;20054;-93
2022/07/22 02:18:21;;;;;;;6.57;1.75;;;;;;;14.58;100.00;99005.09;5115923;27;21519;-94
2022/07/22 02:20:47;;;;;;;7.80;1.55;;;;;;;14.49;100.00;98998.28;5115528;27;20032;-93
2022/07/22 02:23:13;;;;;;;10.70;1.83;;;;;;;14.48;100.00;99002.66;5084076;28;20032;-93
2022/07/22 02:25:40;;;;;;;8.68;1.70;;;;;;;14.39;100.00;98991.47;5088686;28;20124;-93
2022/07/22 02:28:07;;;;;;;7.38;1.70;;;;;;;14.47;100.00;98992.19;5112694;27;20031;-93
2022/07/22 02:30:33;;;;;;;9.25;2.10;;;;;;;14.50;100.00;98995.63;5078291;28;20024;-94
2022/07/22 02:32:59;;;;;;;10.75;2.00;;;;;;;14.44;100.00;98982.59;5083648;28;20551;-94
2022/07/22 02:35:24;;;;;;;8.20;1.92;;;;;;;14.48;100.00;98993.91;5089802;28;20115;-94
2022/07/22 02:37:50;;;;;;;5.35;1.88;;;;;;;14.46;100.00;98993.06;5086067;28;20043;-94
2022/07/22 02:40:16;;;;;;;7.40;1.90;;;;;;;14.55;100.00;98998.13;5084679;28;20040;-94
2022/07/22 02:42:42;;;;;;;6.00;1.60;;;;;;;14.63;100.00;98985.75;5084968;28;20039;-93
2022/07/22 02:45:08;;;;;;;6.75;1.80;;;;;;;14.58;100.00;98991.97;5085712;28;20012;-93
2022/07/22 02:47:34;;;;;;;7.80;1.92;;;;;;;14.69;100.00;98997.88;5081938;28;20502;-94
2022/07/22 02:49:59;;;;;;;7.35;1.90;;;;;;;14.69;100.00;98990.00;5082866;28;20021;-94
2022/07/22 02:52:29;;;;;;;7.05;2.08;;;;;;;14.57;100.00;98985.88;5082445;28;20514;-94
2022/07/22 02:54:54;;;;;;;6.88;1.70;;;;;;;14.62;100.00;98989.25;5085133;28;20043;-94
2022/07/22 02:57:20;;;;;;;6.93;1.90;;;;;;;14.65;100.00;98989.19;5082246;28;20024;-94
2022/07/22 02:59:45;;;;;;;7.18;1.92;;;;;;;14.62;100.00;98984.00;5083637;28;20040;-94
2022/07/22 03:02:11;;;;;;;11.80;2.20;;;;;;;14.65;100.00;98981.31;5111119;28;20043;-94
2022/07/22 03:04:36;;;;;;;8.20;1.80;;;;;;;14.47;100.00;98976.44;5079736;28;20530;-93
2022/07/22 03:07:02;;;;;;;8.13;2.15;;;;;;;14.36;100.00;98971.41;5084608;28;20032;-94
2022/07/22 03:09:27;;;;;;;6.55;1.95;;;;;;;14.43;100.00;98980.91;5082298;28;20429;-93
2022/07/22 03:11:53;;;;;;;8.55;2.05;;;;;;;14.50;100.00;98974.63;5089717;28;20056;-94
2022/07/22 03:14:20;;;;;;;9.65;2.00;;;;;;;14.42;100.00;98966.06;5089058;28;20020;-94
2022/07/22 03:16:45;;;;;;;8.80;2.00;;;;;;;14.49;100.00;98966.78;5080591;28;20129;-93
2022/07/22 03:19:15;;;;;;;7.88;2.20;;;;;;;14.44;100.00;98969.50;5087244;28;20040;-93
2022/07/22 03:21:40;;;;;;;6.82;2.50;;;;;;;14.44;100.00;98976.50;5083032;28;20115;-93
2022/07/22 03:24:06;;;;;;;7.43;2.15;;;;;;;14.47;100.00;98979.06;5088221;28;20539;-94
2022/07/22 03:26:32;;;;;;;10.52;2.40;;;;;;;14.37;100.00;98969.66;5089546;28;20038;-93
2022/07/22 03:28:57;;;;;;;8.23;2.30;;;;;;;14.47;100.00;98973.81;5086393;28;20028;-92
2022/07/22 03:31:23;;;;;;;7.95;2.25;;;;;;;14.34;100.00;98967.97;5083019;28;20038;-93
2022/07/22 03:33:48;;;;;;;9.00;2.50;;;;;;;14.43;100.00;98974.78;5083936;28;20055;-93
2022/07/22 03:36:14;;;;;;;7.22;2.58;;;;;;;14.29;100.00;98965.44;5082391;28;20078;-95
2022/07/22 03:38:39;;;;;;;10.88;2.90;;;;;;;14.30;100.00;98972.41;5084320;28;20093;-93
2022/07/22 03:41:05;;;;;;;9.15;2.72;;;;;;;14.26;100.00;98965.50;5083707;28;20278;-94
2022/07/22 03:43:31;;;;;;;8.85;2.65;;;;;;;14.32;100.00;98972.38;5090282;28;20028;-93
2022/07/22 03:45:57;;;;;;;10.43;3.17;;;;;;;14.42;100.00;98970.41;5091120;28;20093;-95
2022/07/22 03:48:23;;;;;;;9.07;3.30;;;;;;;14.25;100.00;98970.78;5088308;28;20020;-94
2022/07/22 03:50:49;;;;;;;6.85;2.42;;;;;;;14.37;100.00;98978.41;5084193;28;20035;-93
2022/07/22 03:53:15;;;;;;;9.85;3.00;;;;;;;14.39;100.00;98971.38;5089870;28;20120;-93
2022/07/22 03:55:46;;;;;;;8.68;2.67;;;;;;;14.47;100.00;98964.19;5082424;28;20044;-93
2022/07/22 03:58:11;;;;;;;10.77;2.90;;;;;;;14.55;100.00;98961.38;5087910;28;20071;-93
2022/07/22 04:00:37;;;;;;;8.60;2.90;;;;;;;14.46;100.00;98962.47;5089115;28;20108;-95
2022/07/22 04:03:03;;;;;;;9.48;2.80;;;;;;;14.31;100.00;98963.66;5087024;28;20044;-95
2022/07/22 04:05:28;;;;;;;8.07;2.70;;;;;;;14.31;100.00;98966.28;5086372;28;20023;-94
2022/07/22 04:08:04;;;;;;;12.20;2.85;;;;;;;14.40;100.00;98972.22;5085305;28;20784;-94
2022/07/22 04:10:30;;;;;;;9.43;2.88;;;;;;;14.52;100.00;98957.06;5086146;28;20035;-94
2022/07/22 04:12:55;;;;;;;9.43;2.70;;;;;;;14.39;100.00;98946.88;5090269;28;20050;-94
2022/07/22 04:15:21;;;;;;;11.10;3.20;;;;;;;14.29;100.00;98947.09;5082315;28;20028;-94
2022/07/22 04:17:46;;;;;;;13.70;3.22;;;;;;;14.27;100.00;98948.88;5090030;28;20020;-95
2022/07/22 04:20:12;;;;;;;12.25;3.50;;;;;;;14.40;100.00;98961.72;5085567;28;20047;-94
2022/07/22 04:22:37;;;;;;;10.70;3.17;;;;;;;14.24;100.00;98948.94;5088784;28;20459;-94
2022/07/22 04:25:03;;;;;;;8.82;3.15;;;;;;;14.44;100.00;98959.00;5092650;28;20029;-94
2022/07/22 04:27:28;;;;;;;11.45;3.67;;;;;;;14.35;100.00;98956.59;5088773;28;20035;-95
2022/07/22 04:29:54;;;;;;;8.93;3.00;;;;;;;14.27;100.00;98955.88;5104299;27;20040;-96
2022/07/22 04:32:19;;;;;;;7.97;3.30;;;;;;;14.31;100.00;98949.69;5083477;28;20024;-93
2022/07/22 04:34:45;;;;;;;9.38;3.10;;;;;;;14.32;100.00;98959.25;5088755;28;21286;-95
2022/07/22 04:37:10;;;;;;;8.50;2.97;;;;;;;14.21;100.00;98956.88;5087757;28;20043;-94
2022/07/22 04:39:39;;;;;;;9.70;3.20;;;;;;;14.21;100.00;98963.88;5088348;28;20059;-93
2022/07/22 04:42:04;;;;;;;11.40;3.53;;;;;;;14.29;100.00;98968.06;5085292;28;20055;-95
2022/07/22 04:44:30;;;;;;;10.68;2.85;;;;;;;14.36;100.00;98971.41;5084605;28;20059;-95
2022/07/22 04:46:55;;;;;;;8.70;2.83;;;;;;;14.43;100.00;98969.53;5083757;28;20029;-95
2022/07/22 04:49:21;;;;;;;9.75;2.80;;;;;;;14.37;100.00;98964.41;5088751;28;20519;-94
2022/07/22 04:51:47;;;;;;;9.52;3.03;;;;;;;14.36;100.00;98967.94;5113897;27;20032;-93
2022/07/22 04:54:12;;;;;;;9.82;3.25;;;;;;;14.39;100.00;98965.25;5091828;28;20079;-95
2022/07/22 04:56:38;;;;;;;7.18;2.53;;;;;;;14.40;100.00;98966.97;5086644;28;20050;-93
2022/07/22 04:59:10;;;;;;;8.90;2.80;;;;;;;14.47;100.00;98966.81;5087183;28;20056;-94
2022/07/22 05:01:36;;;;;;;11.18;3.00;;;;;;;14.54;100.00;98959.66;5087577;28;20333;-94
2022/07/22 05:04:03;;;;;;;9.18;2.75;;;;;;;14.37;100.00;98957.41;5086384;28;20058;-93
2022/07/22 05:06:34;;;;;;;10.35;4.10;;;;;;;14.36;100.00;98960.06;5078393;28;20040;-94
2022/07/22 05:09:00;;;;;;;8.50;3.33;;;;;;;14.45;100.00;98967.75;5094190;27;20036;-94
2022/07/22 05:11:25;;;;;;;8.80;3.00;;;;;;;14.36;100.00;98958.28;5078173;28;20084;-94
2022/07/22 05:13:51;;;;;;;8.32;3.03;;;;;;;14.39;100.00;98968.75;5084358;28;20055;-94
2022/07/22 05:16:16;;;;;;;9.02;2.80;;;;;;;14.44;100.00;98960.75;5077990;28;20062;-93
2022/07/22 05:18:45;;;;;;;12.30;2.85;;;;;;;14.38;100.00;98960.88;5112272;27;20806;-95
2022/07/22 05:21:10;;;;;;;9.35;3.17;;;;;;;14.14;100.00;98969.25;5079299;28;20028;-94
2022/07/22 05:23:39;;;;;;;10.95;3.08;;;;;;;14.17;100.00;98984.06;5079618;28;20040;-93
2022/07/22 05:26:05;;;;;;;10.77;3.00;;;;;;;14.50;100.00;98987.75;5081862;28;20092;-94
2022/07/22 05:28:31;;;;;;;8.50;3.05;;;;;;;14.21;100.00;98977.88;5084236;28;20027;-94
2022/07/22 05:30:56;;;;;;;8.63;2.85;;;;;;;14.20;100.00;98984.00;5084662;28;20465;-93
2022/07/22 05:33:22;;;;;;;9.30;2.75;;;;;;;14.25;100.00;98982.16;5078489;28;20036;-95
2022/07/22 05:35:47;;;;;;;15.05;3.88;;;;;;;14.31;100.00;98982.00;5085854;28;20024;-94
2022/07/22 05:38:15;;;;;;;9.68;3.58;;;;;;;14.26;100.00;98985.63;5078137;28;20028;-94
2022/07/22 05:40:40;;;;;;;11.15;4.03;;;;;;;14.44;100.00;98976.50;5085112;28;20032;-94
2022/07/22 05:43:08;;;;;;;8.88;4.15;;;;;;;14.39;100.00;98984.50;5081872;28;20113;-94
2022/07/22 05:45:34;;;;;;;11.80;4.13;;;;;;;14.31;100.00;98974.13;5077662;28;20112;-94
2022/07/22 05:48:00;;;;;;;10.43;4.00;;;;;;;14.24;100.00;98972.53;5081505;28;20071;-94
2022/07/22 05:50:26;;;;;;;10.48;4.32;;;;;;;14.52;100.00;98980.69;5114103;27;20093;-93
2022/07/22 05:52:52;;;;;;;12.80;4.30;;;;;;;14.35;100.00;98977.56;5110079;27;20021;-94
2022/07/22 05:55:18;;;;;;;11.77;4.57;;;;;;;14.47;100.00;98976.44;5079953;28;20059;-93
2022/07/22 05:57:44;;;;;;;12.75;4.13;;;;;;;14.25;100.00;98970.78;5110632;27;20119;-95
2022/07/22 06:00:10;;;;;;;10.55;4.30;;;;;;;14.25;100.00;98982.16;5077713;28;20114;-94
2022/07/22 06:02:35;;;;;;;13.07;4.47;;;;;;;14.43;100.00;98982.66;5083717;28;20084;-95
2022/07/22 06:05:07;;;;;;;15.40;4.32;;;;;;;14.45;100.00;98981.72;5084206;28;20027;-94
2022/07/22 06:07:33;;;;;;;11.05;4.38;;;;;;;14.48;100.00;98988.66;5084151;28;20036;-94
2022/07/22 06:09:58;;;;;;;10.98;3.92;;;;;;;14.30;100.00;98976.81;5085550;28;20107;-93
2022/07/22 06:12:25;;;;;;;12.73;4.68;;;;;;;14.37;100.00;98986.25;5111486;27;20040;-93
2022/07/22 06:14:50;;;;;;;10.15;4.38;;;;;;;14.31;100.00;98995.13;5085740;28;20054;-94
2022/07/22 06:17:16;;;;;;;12.90;4.55;;;;;;;14.36;100.00;98992.41;5078544;28;20048;-92
2022/07/22 06:19:41;;;;;;;12.25;4.72;;;;;;;14.42;100.00;98992.28;5080945;28;20476;-93
2022/07/22 06:22:07;;;;;;;13.10;4.20;;;;;;;14.59;100.00;98993.69;5088049;28;20101;-94
2022/07/22 06:24:32;;;;;;;10.35;4.10;;;;;;;15.53;100.00;98966.09;5078912;28;20047;-94
2022/07/22 06:26:58;;;;;;;10.35;4.32;;;;;;;14.49;100.00;98961.53;5084461;28;20063;-94
2022/07/22 06:29:23;;;;;;;12.18;4.50;;;;;;;14.23;100.00;98977.81;5088958;28;20028;-94
2022/07/22 06:31:49;;;;;;;11.18;4.07;;;;;;;14.14;100.00;98991.97;5087981;28;20032;-95
2022/07/22 06:34:19;;;;;;;13.52;4.88;;;;;;;14.25;100.00;99000.50;5102213;28;20069;-94
2022/07/22 06:36:44;;;;;;;11.38;4.60;;;;;;;14.28;100.00;99010.94;5083489;28;20054;-96
2022/07/22 06:39:10;;;;;;;12.18;4.38;;;;;;;14.24;100.00;99014.53;5080472;28;20052;-95
2022/07/22 06:41:37;;;;;;;15.73;4.05;;;;;;;14.26;100.00;99017.97;5084117;28;20485;-95
2022/07/22 06:44:02;;;;;;;9.60;3.78;;;;;;;14.13;100.00;99022.59;5086111;28;20085;-95
2022/07/22 06:46:35;;;;;;;12.05;4.40;;;;;;;14.19;100.00;99032.09;5083425;28;20032;-95
2022/07/22 06:49:01;;;;;;;10.55;3.80;;;;;;;14.15;100.00;99038.28;5114288;27;20055;-94
2022/07/22 06:51:27;;;;;;;10.77;3.95;;;;;;;14.15;100.00;99047.03;5082814;28;20071;-95
2022/07/22 06:53:52;;;;;;;8.95;3.67;;;;;;;14.30;100.00;99045.88;5083088;28;20123;-94
2022/07/22 06:56:18;;;;;;;12.15;3.63;;;;;;;14.29;100.00;99053.75;5083630;28;20040;-95
2022/07/22 06:58:43;;;;;;;10.30;3.67;;;;;;;14.40;100.00;99043.91;5085656;28;20444;-93
2022/07/22 07:01:08;;;;;;;11.32;4.32;;;;;;;14.37;100.00;99051.84;5079371;28;20039;-92
2022/07/22 07:03:34;;;;;;;11.15;4.10;;;;;;;14.10;100.00;99043.63;5082835;28;20413;-93
2022/07/22 07:05:59;;;;;;;10.00;3.67;;;;;;;14.29;100.00;99049.41;5081837;28;20035;-94
2022/07/22 07:08:25;;;;;;;8.93;3.10;;;;;;;14.27;100.00;99045.06;5087938;28;20477;-94
2022/07/22 07:10:50;;;;;;;8.02;3.10;;;;;;;14.11;100.00;99053.25;5083043;28;20135;-95
2022/07/22 07:13:16;;;;;;;10.07;3.50;;;;;;;13.88;100.00;99053.66;5086205;28;20028;-94
2022/07/22 07:15:42;;;;;;;7.40;3.13;;;;;;;13.91;100.00;99047.50;5078068;28;20020;-94
2022/07/22 07:18:09;;;;;;;9.25;3.20;;;;;;;13.96;100.00;99045.66;5120593;27;20031;-96
2022/07/22 07:20:35;;;;;;;10.50;3.20;;;;;;;13.94;100.00;99042.19;5089007;28;20027;-94
2022/07/22 07:23:01;;;;;;;7.47;2.88;;;;;;;13.88;100.00;99043.16;5119528;27;20028;-95
2022/07/22 07:25:27;;;;;;;10.95;3.28;;;;;;;13.86;100.00;99047.56;5120121;27;20581;-93
2022/07/22 07:27:52;;;;;;;8.27;3.47;;;;;;;13.88;100.00;99047.56;5089727;28;20024;-95
2022/07/22 07:30:18;;;;;;;10.02;3.60;;;;;;;13.99;100.00;99043.81;5085950;28;20039;-94
2022/07/22 07:32:43;;;;;;;8.23;3.20;;;;;;;13.86;100.00;99057.19;5087988;28;20047;-95
2022/07/22 07:35:10;;;;;;;9.43;3.30;;;;;;;13.92;100.00;99052.72;5121216;27;20613;-94
2022/07/22 07:37:35;;;;;;;9.18;3.08;;;;;;;13.90;100.00;99051.84;5083674;28;20033;-94
2022/07/22 07:40:08;;;;;;;8.48;3.35;;;;;;;13.92;100.00;99049.22;5086389;28;20070;-94
2022/07/22 07:42:34;;;;;;;8.88;3.28;;;;;;;13.94;100.00;99040.41;5089312;28;20028;-94
2022/07/22 07:45:00;;;;;;;11.23;3.45;;;;;;;13.88;100.00;99045.78;5089094;28;20026;-95
2022/07/22 07:47:25;;;;;;;8.40;3.38;;;;;;;13.90;100.00;99051.00;5086515;28;20510;-94
2022/07/22 07:49:51;;;;;;;8.82;3.60;;;;;;;13.81;100.00;99052.03;5118589;27;20027;-94
2022/07/22 07:52:17;;;;;;;9.43;3.42;;;;;;;13.86;100.00;99055.41;5089308;28;20476;-94
2022/07/22 07:54:49;;;;;;;8.07;3.03;;;;;;;13.73;100.00;99051.31;5079762;28;20044;-96
2022/07/22 07:57:15;;;;;;;9.18;3.22;;;;;;;13.66;100.00;99046.16;5084607;28;20029;-95
2022/07/22 07:59:40;;;;;;;7.43;2.92;;;;;;;13.61;100.00;99045.38;5085295;28;20574;-95
2022/07/22 08:02:10;;;;;;;7.45;2.78;;;;;;;13.46;100.00;99040.41;5114559;27;20034;-96
2022/07/22 08:04:40;;;;;;;9.32;3.10;;;;;;;13.47;100.00;99042.09;5088440;28;20012;-95
2022/07/22 08:07:10;;;;;;;9.48;2.90;;;;;;;13.56;100.00;99035.88;5092458;28;20128;-96
2022/07/22 08:09:37;;;;;;;10.00;3.30;;;;;;;13.73;100.00;99049.53;5106527;27;20029;-96
2022/07/22 08:12:04;;;;;;;9.07;3.50;;;;;;;13.58;100.00;99040.16;5095369;28;20035;-96
2022/07/22 08:14:30;;;;;;;9.88;3.45;;;;;;;13.57;100.00;99048.94;5101834;28;20029;-96
2022/07/22 08:16:55;;;;;;;8.07;3.33;;;;;;;13.44;100.00;99047.41;5090890;28;20052;-95
2022/07/22 08:19:21;;;;;;;8.80;3.15;;;;;;;13.45;100.00;99054.38;5096319;28;20079;-96
2022/07/22 08:25:14;;;;;;;7.80;3.47;;;;;;;13.54;100.00;99048.13;5093248;28;20058;-96
2022/07/22 08:27:44;;;;;;;8.05;3.15;;;;;;;13.46;100.00;99059.59;5080088;28;20070;-96
2022/07/22 08:30:10;;;;;;;8.00;3.03;;;;;;;13.22;100.00;99058.19;5081412;28;20040;-96
2022/07/22 08:32:40;;;;;;;9.82;3.47;;;;;;;13.30;100.00;99058.06;5129139;27;20034;-96
2022/07/22 08:35:07;;;;;;;13.68;3.80;;;;;;;13.27;100.00;99064.22;5092250;28;20091;-96
2022/07/22 08:37:38;;;;;;;8.40;3.50;;;;;;;13.26;100.00;99059.88;5127819;27;20210;-96
2022/07/22 08:40:11;;;;;;;8.45;3.80;;;;;;;13.26;100.00;99086.06;5085712;28;20028;-96
2022/07/22 08:42:47;;;;;;;8.27;3.50;;;;;;;13.34;100.00;99066.75;5085929;28;20028;-96
2022/07/22 08:45:13;;;;;;;8.40;3.40;;;;;;;13.39;100.00;99076.28;5089940;28;20028;-96
2022/07/22 08:47:44;;;;;;;8.68;3.20;;;;;;;13.60;100.00;99075.09;5085464;28;20025;-96
2022/07/22 08:50:10;;;;;;;9.30;3.20;;;;;;;13.45;100.00;99070.09;5085114;28;20058;-96
2022/07/22 08:52:41;;;;;;;8.43;3.25;;;;;;;13.36;100.00;99063.25;5094745;28;20032;-96
2022/07/22 08:55:08;;;;;;;7.07;2.80;;;;;;;13.26;100.00;99064.22;5092046;28;20044;-96
2022/07/22 08:57:35;;;;;;;9.48;3.00;;;;;;;13.35;100.00;99056.28;5122554;27;20040;-96
2022/07/22 09:00:03;;;;;;;7.13;2.97;;;;;;;13.19;100.00;99073.06;5095129;28;20043;-96
2022/07/22 09:02:38;;;;;;;8.02;2.70;;;;;;;13.13;100.00;99066.19;5105220;28;20023;-96
2022/07/22 09:05:19;;;;;;;8.68;3.10;;;;;;;13.06;100.00;99072.38;5090917;28;20029;-96
2022/07/22 09:07:51;;;;;;;8.02;2.53;;;;;;;13.00;100.00;99069.84;5108857;27;20055;-96
2022/07/22 09:10:20;;;;;;;7.47;3.00;;;;;;;13.23;100.00;99075.63;5094033;22;20049;-93
2022/07/22 09:12:59;;;;;;;7.95;2.88;;;;;;;13.27;100.00;99074.69;5020556;28;20627;-93
2022/07/22 09:15:35;;;;;;;8.98;3.05;;;;;;;13.36;100.00;99071.13;5019651;28;20098;-93
2022/07/22 09:18:02;;;;;;;7.13;2.90;;;;;;;13.22;100.00;99057.31;5000813;28;20025;-95
2022/07/22 09:20:28;;;;;;;7.63;2.75;;;;;;;13.01;100.00;99075.06;5002390;28;20125;-93
2022/07/22 09:22:55;;;;;;;10.05;3.00;;;;;;;12.99;100.00;99079.47;4998353;28;20084;-93
2022/07/22 09:25:28;;;;;;;12.07;3.50;;;;;;;13.16;100.00;99081.84;5000561;28;20044;-94
2022/07/22 09:28:08;;;;;;;9.18;3.35;;;;;;;13.15;100.00;99085.34;4997727;28;20026;-94
2022/07/22 09:30:36;;;;;;;10.15;3.38;;;;;;;12.93;100.00;99075.19;5002478;28;20072;-93
2022/07/22 09:33:03;;;;;;;9.27;3.47;;;;;;;13.43;100.00;99096.31;4998706;28;20128;-92
2022/07/22 09:35:29;;;;;;;9.70;3.38;;;;;;;13.13;100.00;99095.84;4999591;28;20095;-92
2022/07/22 09:38:04;;;;;;;9.35;3.20;;;;;;;13.33;100.00;99097.31;5016449;28;20374;-92
2022/07/22 09:40:32;;;;;;;9.38;3.40;;;;;;;13.37;100.00;99090.31;4999951;28;20638;-93
2022/07/22 09:43:00;;;;;;;7.45;3.05;;;;;;;13.31;100.00;99093.84;5000323;28;20049;-92
2022/07/22 09:45:30;;;;;;;11.13;3.95;;;;;;;13.51;100.00;99093.56;4999099;28;20065;-93
2022/07/22 09:47:57;;;;;;;9.32;3.83;;;;;;;13.31;100.00;99089.47;5001757;28;20030;-93
2022/07/22 09:50:23;;;;;;;9.02;3.67;;;;;;;13.48;100.00;99096.25;5001626;28;20026;-94
2022/07/22 09:52:51;;;;;;;9.82;3.75;;;;;;;13.45;100.00;99101.53;5017440;28;20053;-93
2022/07/22 09:55:21;;;;;;;8.43;3.42;;;;;;;13.54;100.00;99085.69;5015940;28;20042;-93
2022/07/22 10:05:00;;;;;;;8.40;3.38;;;;;;;13.59;100.00;99072.50;5003359;28;20167;-93
2022/07/22 10:07:27;;;;;;;10.93;3.42;;;;;;;13.21;100.00;99076.53;5020245;28;20034;-93
2022/07/22 10:09:53;;;;;;;7.25;3.20;;;;;;;13.76;100.00;99078.31;5018678;28;20033;-93
2022/07/22 10:12:20;;;;;;;8.68;3.25;;;;;;;13.54;100.00;99069.97;4989343;28;20091;-92
2022/07/22 10:14:47;;;;;;;8.77;3.35;;;;;;;13.69;100.00;99067.97;4984215;28;20033;-90
2022/07/22 10:17:14;;;;;;;9.68;3.42;;;;;;;13.72;100.00;99066.13;5010112;28;20062;-91
2022/07/22 10:19:40;;;;;;;8.18;3.25;;;;;;;13.78;100.00;99065.19;4988659;28;20046;-91
2022/07/22 10:22:44;;;;;;;8.93;3.10;;;;;;;13.91;100.00;99064.06;5006899;28;20058;-92
2022/07/22 10:25:13;;;;;;;10.27;3.55;;;;;;;13.90;100.00;99064.09;5018317;28;20089;-92
2022/07/22 10:27:48;;;;;;;10.35;3.80;;;;;;;13.95;100.00;99065.75;5006728;28;20029;-91
2022/07/22 10:30:25;;;;;;;10.27;3.70;;;;;;;14.01;100.00;99059.53;5002935;28;21026;-92
2022/07/22 10:33:14;;;;;;;12.93;4.20;;;;;;;13.97;100.00;99053.50;4996673;28;20033;-92
2022/07/22 10:35:43;;;;;;;9.73;4.10;;;;;;;14.16;100.00;99056.63;4988015;28;20026;-91
2022/07/22 10:38:10;;;;;;;8.50;4.15;;;;;;;14.06;100.00;99056.84;4995491;28;20046;-90
2022/07/22 10:40:56;;;;;;;11.15;3.97;;;;;;;13.79;100.00;99048.56;5010056;28;20034;-92
2022/07/22 10:43:29;;;;;;;8.70;3.90;;;;;;;13.77;100.00;99066.09;4985477;28;20125;-92
2022/07/22 10:45:55;;;;;;;;;;;;;;;13.72;100.00;99062.66;4988224;28;20032;-93
2022/07/22 10:48:33;;;;;;;9.15;3.88;;;;;;;13.61;100.00;99062.84;5009938;28;19928;-92
2022/07/22 10:51:09;;;;;;;9.10;4.40;;;;;;;13.60;100.00;99069.84;5001045;28;20033;-92
2022/07/22 10:54:44;;;;;;;9.38;4.30;;;;;;;13.66;100.00;99079.38;5006846;28;20060;-92
2022/07/22 10:57:10;;;;;;;9.65;4.43;;;;;;;13.91;100.00;99081.56;5005667;28;20168;-92
2022/07/22 10:59:35;;;;;;;12.38;4.72;;;;;;;13.90;100.00;99083.31;5002472;28;20134;-92
2022/07/22 11:02:03;;;;;;;9.05;4.57;;;;;;;13.86;100.00;99078.16;4989188;28;20034;-95
2022/07/22 11:04:29;;;;;;;10.35;4.50;;;;;;;13.90;100.00;99078.06;4994810;28;20096;-90
2022/07/22 11:06:56;;;;;;;11.25;4.88;;;;;;;13.94;100.00;99076.28;5006792;28;20030;-91
2022/07/22 11:09:33;;;;;;;10.10;5.03;;;;;;;13.81;100.00;99076.47;4982762;28;20057;-91
2022/07/22 11:11:59;;;;;;;10.07;4.82;;;;;;;14.00;100.00;99079.66;4981657;28;20749;-91
2022/07/22 11:14:30;;;;;;;10.52;4.40;;;;;;;13.98;100.00;99081.41;4975591;28;20049;-92
2022/07/22 11:17:14;;;;;;;9.45;4.15;;;;;;;14.02;100.00;99084.03;4982764;28;20037;-92
2022/07/22 11:19:44;;;;;;;8.02;3.78;;;;;;;13.91;100.00;99081.56;4987781;28;20038;-93
2022/07/22 11:22:13;;;;;;;12.82;4.70;;;;;;;13.91;100.00;99084.19;4964098;28;20034;-90
2022/07/22 11:24:40;;;;;;;8.15;3.55;;;;;;;13.39;100.00;99085.91;4972409;28;20099;-89
2022/07/22 11:27:13;;;;;;;7.82;2.88;;;;;;;13.49;100.00;99082.25;4972636;28;20026;-92
2022/07/22 11:29:46;;;;;;;8.23;3.30;;;;;;;13.45;100.00;99062.25;4963737;28;20495;-92
2022/07/22 11:32:13;;;;;;;7.80;2.90;;;;;;;13.39;100.00;99060.59;4981231;28;20593;-93
2022/07/22 11:34:46;;;;;;;7.95;2.95;;;;;;;13.39;100.00;99062.31;4996519;28;20069;-93
2022/07/22 11:37:23;;;;;;;8.48;3.30;;;;;;;13.62;100.00;99060.19;4978599;28;20038;-93